Time;durP1;ratioP1;P1;durP2;ratioP2;P2;SDS_P1;SDS_P2;PMS_P1;PMS_P2;Temp;Humidity;BMP_temperature;BMP_pressure;BME280_temperature;BME280_humidity;BME280_pressure;Samples;Min_cycle;Max_cycle;Signal;HPM_P1;HPM_P2
2022/06/11 00:01:51;;;;;;;;;;;;;;;17.91;73.21;100199.09;123042;1102;104287;-78
2022/06/11 00:04:20;;;;;;;;;;;;;;;17.85;72.84;100189.30;123003;1102;104338;-79
2022/06/11 00:06:49;;;;;;;;;;;;;;;17.79;72.95;100200.82;122961;1102;104307;-79
2022/06/11 00:09:17;;;;;;;;;;;;;;;17.77;73.53;100196.37;123176;1102;104248;-79
2022/06/11 00:11:46;;;;;;;;;;;;;;;17.73;73.76;100202.55;123017;1102;104653;-79
2022/06/11 00:14:14;;;;;;;;;;;;;;;17.70;73.29;100199.89;123471;1102;104344;-79
2022/06/11 00:16:42;;;;;;;;;;;;;;;17.68;73.15;100196.36;123167;1102;104274;-79
2022/06/11 00:19:10;;;;;;;;;;;;;;;17.68;73.31;100196.36;123021;1102;104267;-79
2022/06/11 00:21:39;;;;;;;;;;;;;;;17.65;73.15;100199.89;123007;1102;104697;-78
2022/06/11 00:24:07;;;;;;;;;;;;;;;17.61;73.04;100199.00;122988;1102;104268;-79
2022/06/11 00:26:35;;;;;;;;;;;;;;;17.58;73.99;100196.34;122965;1102;104370;-79
2022/06/11 00:29:04;;;;;;;;;;;;;;;17.57;73.59;100199.00;123077;1102;104236;-79
2022/06/11 00:31:32;;;;;;;;;;;;;;;17.54;73.89;100194.55;123119;1102;104383;-79
2022/06/11 00:34:00;;;;;;;;;;;;;;;17.52;73.48;100198.98;122964;1102;104245;-78
2022/06/11 00:36:27;;;;;;;;;;;;;;;17.49;73.73;100201.62;123039;1102;104393;-78
2022/06/11 00:38:56;;;;;;;;;;;;;;;17.46;74.13;100198.97;123231;1102;104316;-79
2022/06/11 00:41:25;;;;;;;;;;;;;;;17.43;74.70;100204.27;123071;1105;105748;-79
2022/06/11 00:43:53;;;;;;;;;;;;;;;17.42;75.16;100205.13;123061;1105;104214;-78
2022/06/11 00:46:40;;;;;;;;;;;;;;;17.39;75.33;100205.12;123109;1105;104255;-78
2022/06/11 00:49:14;;;;;;;;;;;;;;;17.38;74.85;100204.25;123169;1102;104370;-78
2022/06/11 00:51:42;;;;;;;;;;;;;;;17.37;74.58;100201.59;123768;1102;104245;-78
2022/06/11 00:54:14;;;;;;;;;;;;;;;17.37;74.87;100204.24;123365;1103;104353;-78
2022/06/11 00:56:44;;;;;;;;;;;;;;;17.33;76.10;100197.18;123250;1102;104245;-79
2022/06/11 00:59:15;;;;;;;;;;;;;;;17.32;74.78;100200.70;123264;1102;104274;-79
2022/06/11 01:01:43;;;;;;;;;;;;;;;17.28;75.58;100198.91;123146;1102;104312;-78
2022/06/11 01:04:28;;;;;;;;;;;;;;;17.23;75.28;100199.80;123403;1102;104422;-78
2022/06/11 01:06:59;;;;;;;;;;;;;;;17.18;75.52;100200.64;123095;1105;104277;-78
2022/06/11 01:09:30;;;;;;;;;;;;;;;17.14;75.71;100204.16;123204;1102;104383;-78
2022/06/11 01:12:07;;;;;;;;;;;;;;;17.09;76.19;100209.44;122995;1102;104380;-78
2022/06/11 01:14:43;;;;;;;;;;;;;;;17.07;76.63;100211.20;123284;1102;104727;-78
2022/06/11 01:17:17;;;;;;;;;;;;;;;17.02;75.68;100212.95;123195;1103;104235;-78
2022/06/11 01:20:01;;;;;;;;;;;;;;;16.99;74.90;100218.24;123316;1102;104318;-78
2022/06/11 01:22:40;;;;;;;;;;;;;;;16.94;74.87;100215.57;123407;1105;104396;-78
2022/06/11 01:25:15;;;;;;;;;;;;;;;16.90;76.66;100213.77;123386;1102;104280;-79
2022/06/11 01:28:00;;;;;;;;;;;;;;;16.88;77.00;100224.36;123437;1102;109030;-79
2022/06/11 01:30:31;;;;;;;;;;;;;;;16.84;77.38;100227.86;123438;1102;104316;-78
2022/06/11 01:33:09;;;;;;;;;;;;;;;16.83;77.43;100222.55;123173;1102;104330;-78
2022/06/11 01:35:41;;;;;;;;;;;;;;;16.79;77.89;100218.97;123422;1105;104242;-78
2022/06/11 01:38:15;;;;;;;;;;;;;;;16.79;77.77;100226.92;123096;1105;119450;-78
2022/06/11 01:40:47;;;;;;;;;;;;;;;16.78;78.47;100227.82;122976;1103;104373;-79
2022/06/11 01:43:19;;;;;;;;;;;;;;;16.78;77.51;100225.17;123083;1103;104255;-78
2022/06/11 01:45:47;;;;;;;;;;;;;;;16.76;77.50;100224.25;123127;1105;104252;-77
2022/06/11 01:48:17;;;;;;;;;;;;;;;16.75;77.90;100233.10;123217;1105;104255;-77
2022/06/11 01:50:50;;;;;;;;;;;;;;;16.74;77.73;100226.02;123247;1104;104360;-77
2022/06/11 01:53:34;;;;;;;;;;;;;;;16.75;76.93;100230.45;123221;1105;104258;-78
2022/06/11 01:56:13;;;;;;;;;;;;;;;16.74;77.09;100233.97;123892;1105;104283;-78
2022/06/11 01:58:51;;;;;;;;;;;;;;;16.78;76.75;100234.86;123430;1104;111933;-78
2022/06/11 02:01:24;;;;;;;;;;;;;;;16.78;77.80;100238.42;123238;1105;104230;-78
2022/06/11 02:03:57;;;;;;;;;;;;;;;16.79;78.17;100240.17;123451;1105;104389;-78
2022/06/11 02:06:34;;;;;;;;;;;;;;;16.80;77.09;100238.43;123203;1105;104379;-78
2022/06/11 02:09:08;;;;;;;;;;;;;;;16.79;77.33;100242.82;123673;1105;104281;-78
2022/06/11 02:11:37;;;;;;;;;;;;;;;16.78;78.22;100238.42;123104;1105;104233;-79
2022/06/11 02:14:10;;;;;;;;;;;;;;;16.81;77.67;100245.48;123276;1105;104312;-78
2022/06/11 02:16:41;;;;;;;;;;;;;;;16.81;77.78;100243.73;123074;1105;104383;-78
2022/06/11 02:19:11;;;;;;;;;;;;;;;16.86;76.77;100254.37;123058;1105;104261;-79
2022/06/11 02:21:47;;;;;;;;;;;;;;;16.89;78.03;100249.09;123269;1105;104393;-78
2022/06/11 02:24:17;;;;;;;;;;;;;;;16.88;77.89;100249.98;123395;1103;104386;-79
2022/06/11 02:26:46;;;;;;;;;;;;;;;16.88;79.40;100258.81;123317;1105;104309;-79
2022/06/11 02:29:15;;;;;;;;;;;;;;;16.91;77.57;100257.05;123396;1102;104312;-79
2022/06/11 02:31:47;;;;;;;;;;;;;;;16.93;78.11;100258.84;123307;1101;104248;-78
2022/06/11 02:34:16;;;;;;;;;;;;;;;16.95;78.02;100257.08;123241;1102;104412;-78
2022/06/11 02:36:48;;;;;;;;;;;;;;;16.96;77.91;100255.33;123112;1102;104415;-78
2022/06/11 02:39:16;;;;;;;;;;;;;;;16.97;77.85;100260.64;123236;1101;104274;-79
2022/06/11 02:41:44;;;;;;;;;;;;;;;17.03;77.90;100259.77;123595;1102;104341;-78
2022/06/11 02:44:11;;;;;;;;;;;;;;;17.07;77.87;100258.92;123490;1102;104356;-78
2022/06/11 02:46:43;;;;;;;;;;;;;;;17.10;78.25;100258.06;123053;1102;104382;-79
2022/06/11 02:49:12;;;;;;;;;;;;;;;17.11;77.95;100252.77;123077;1102;104376;-78
2022/06/11 02:51:40;;;;;;;;;;;;;;;17.12;77.92;100258.94;123128;1105;104165;-79
2022/06/11 02:54:08;;;;;;;;;;;;;;;17.14;77.97;100259.83;123056;1105;104370;-78
2022/06/11 02:56:35;;;;;;;;;;;;;;;17.18;78.28;100257.20;123026;1102;104296;-79
2022/06/11 02:59:03;;;;;;;;;;;;;;;17.21;78.12;100259.86;123103;1102;104293;-79
2022/06/11 03:01:31;;;;;;;;;;;;;;;17.27;77.92;100271.41;122970;1102;104367;-79
2022/06/11 03:03:59;;;;;;;;;;;;;;;17.32;77.42;100272.30;123036;1102;104175;-79
2022/06/11 03:06:27;;;;;;;;;;;;;;;17.36;77.58;100274.09;123055;1102;104736;-78
2022/06/11 03:08:55;;;;;;;;;;;;;;;17.35;77.28;100275.84;123030;1102;104252;-78
2022/06/11 03:11:22;;;;;;;;;;;;;;;17.33;77.43;100274.95;123032;1102;104249;-78
2022/06/11 03:13:50;;;;;;;;;;;;;;;17.36;77.37;100274.09;123628;1102;104401;-78
2022/06/11 03:16:17;;;;;;;;;;;;;;;17.38;78.57;100272.33;123350;1105;104251;-78
2022/06/11 03:18:45;;;;;;;;;;;;;;;17.38;77.52;100262.59;123312;1102;104367;-78
2022/06/11 03:21:13;;;;;;;;;;;;;;;17.40;78.42;100254.64;123712;1102;104306;-78
2022/06/11 03:23:40;;;;;;;;;;;;;;;17.42;77.67;100258.17;123227;1102;104384;-78
2022/06/11 03:26:08;;;;;;;;;;;;;;;17.43;77.91;100260.84;123273;1102;104313;-78
2022/06/11 03:28:36;;;;;;;;;;;;;;;17.46;77.86;100257.32;123199;1102;104274;-78
2022/06/11 03:31:06;;;;;;;;;;;;;;;17.48;77.81;100263.50;122955;1105;104575;-79
2022/06/11 03:33:35;;;;;;;;;;;;;;;17.52;77.99;100259.12;122971;1105;104466;-79
2022/06/11 03:36:05;;;;;;;;;;;;;;;17.56;78.33;100256.48;123069;1105;104572;-78
2022/06/11 03:38:33;;;;;;;;;;;;;;;17.59;77.79;100259.15;123270;1105;104649;-79
2022/06/11 03:41:01;;;;;;;;;;;;;;;17.66;78.01;100267.13;123086;1105;104325;-79
2022/06/11 03:43:29;;;;;;;;;;;;;;;17.71;78.11;100263.58;123007;1105;105031;-78
2022/06/11 03:45:57;;;;;;;;;;;;;;;17.72;78.08;100268.02;123187;1105;104364;-79
2022/06/11 03:48:28;;;;;;;;;;;;;;;17.76;78.18;100268.91;123324;1105;104424;-78
2022/06/11 03:50:57;;;;;;;;;;;;;;;17.77;78.13;100271.56;123306;1105;104310;-78
2022/06/11 03:53:25;;;;;;;;;;;;;;;17.79;77.95;100271.56;123329;1105;104185;-78
2022/06/11 03:55:53;;;;;;;;;;;;;;;17.82;77.74;100268.92;123705;1105;104565;-78
2022/06/11 03:58:21;;;;;;;;;;;;;;;17.86;77.94;100270.71;123186;1105;104660;-78
2022/06/11 04:03:36;;;;;;;;;;;;;;;17.96;78.05;100256.59;122980;1103;104389;-78
2022/06/11 04:06:04;;;;;;;;;;;;;;;18.00;78.24;100265.47;123188;1102;104302;-79
2022/06/11 04:08:45;;;;;;;;;;;;;;;18.04;77.64;100258.38;122936;1102;104248;-79
2022/06/11 04:11:17;;;;;;;;;;;;;;;18.13;78.41;100253.95;123691;1105;108326;-79
2022/06/11 04:13:47;;;;;;;;;;;;;;;18.21;77.42;100259.27;123296;1105;104254;-79
2022/06/11 04:16:24;;;;;;;;;;;;;;;18.21;77.30;100245.12;123744;1102;104252;-79
2022/06/11 04:18:52;;;;;;;;;;;;;;;18.27;77.28;100256.63;123714;1102;104229;-79
2022/06/11 04:21:20;;;;;;;;;;;;;;;18.31;77.60;100257.53;123156;1102;104304;-78
2022/06/11 04:23:50;;;;;;;;;;;;;;;18.38;77.82;100269.03;123087;1105;104251;-78
2022/06/11 04:26:19;;;;;;;;;;;;;;;18.45;77.51;100265.47;123618;1105;104242;-78
2022/06/11 04:28:47;;;;;;;;;;;;;;;18.50;78.20;100264.59;123440;1103;104724;-78
2022/06/11 04:31:16;;;;;;;;;;;;;;;18.53;77.84;100266.38;123371;1102;104322;-79
2022/06/11 04:33:44;;;;;;;;;;;;;;;18.59;77.47;100257.48;123480;1105;104386;-79
2022/06/11 04:36:11;;;;;;;;;;;;;;;18.63;78.05;100265.45;123412;1105;104383;-78
2022/06/11 04:38:39;;;;;;;;;;;;;;;18.71;78.21;100262.79;123056;1105;104489;-78
2022/06/11 04:41:07;;;;;;;;;;;;;;;18.80;77.69;100262.78;123296;1105;104319;-78
2022/06/11 04:43:35;;;;;;;;;;;;;;;18.89;78.04;100269.02;123106;1105;104418;-78
2022/06/11 04:46:03;;;;;;;;;;;;;;;18.98;77.81;100275.19;123075;1105;104434;-78
2022/06/11 04:48:31;;;;;;;;;;;;;;;19.05;77.84;100268.08;122887;1105;104233;-78
2022/06/11 04:50:59;;;;;;;;;;;;;;;19.09;77.28;100275.17;123077;1105;104309;-78
2022/06/11 04:53:26;;;;;;;;;;;;;;;19.14;77.44;100272.50;123103;1105;104261;-78
2022/06/11 04:55:54;;;;;;;;;;;;;;;19.23;77.68;100277.79;122869;1105;104409;-78
2022/06/11 04:58:22;;;;;;;;;;;;;;;19.31;77.25;100289.27;123036;1106;104427;-78
2022/06/11 05:00:50;;;;;;;;;;;;;;;19.34;77.38;100294.59;123280;1105;104427;-78
2022/06/11 05:03:17;;;;;;;;;;;;;;;19.35;77.56;100291.05;123122;1105;104318;-79
2022/06/11 05:05:45;;;;;;;;;;;;;;;19.39;77.53;100294.57;123235;1103;104261;-79
2022/06/11 05:08:14;;;;;;;;;;;;;;;19.46;77.36;100293.67;123120;1102;104248;-79
2022/06/11 05:10:42;;;;;;;;;;;;;;;19.53;77.06;100295.39;123381;1102;104197;-78
2022/06/11 05:13:10;;;;;;;;;;;;;;;19.58;77.81;100306.02;123179;1102;104431;-78
2022/06/11 05:15:39;;;;;;;;;;;;;;;19.62;77.52;100302.46;123070;1102;104251;-78
2022/06/11 05:18:07;;;;;;;;;;;;;;;19.68;77.52;100302.44;123115;1102;104235;-78
2022/06/11 05:20:35;;;;;;;;;;;;;;;19.71;77.50;100302.42;123253;1102;104249;-78
2022/06/11 05:23:03;;;;;;;;;;;;;;;19.68;76.97;100298.87;123199;1103;104389;-78
2022/06/11 05:25:31;;;;;;;;;;;;;;;19.63;77.75;100298.89;123121;1102;104722;-78
2022/06/11 05:27:59;;;;;;;;;;;;;;;19.64;77.70;100305.12;123037;1102;104389;-78
2022/06/11 05:30:29;;;;;;;;;;;;;;;19.62;77.04;100302.46;123127;1105;104293;-78
2022/06/11 05:32:58;;;;;;;;;;;;;;;19.61;77.30;100298.02;123395;1102;104377;-78
2022/06/11 05:35:29;;;;;;;;;;;;;;;19.58;77.60;100296.25;123677;1102;104304;-78
2022/06/11 05:37:58;;;;;;;;;;;;;;;19.62;77.45;100304.22;122983;1102;104392;-79
2022/06/11 05:40:27;;;;;;;;;;;;;;;19.64;77.99;100311.31;123393;1102;104393;-79
2022/06/11 05:42:56;;;;;;;;;;;;;;;19.71;78.90;100313.07;123314;1105;104402;-79
2022/06/11 05:45:26;;;;;;;;;;;;;;;19.73;77.59;100311.27;122935;1103;104393;-78
2022/06/11 05:47:54;;;;;;;;;;;;;;;19.79;78.55;100318.39;122940;1105;104447;-77
2022/06/11 05:50:25;;;;;;;;;;;;;;;19.82;78.04;100317.47;122981;1102;104821;-79
2022/06/11 05:52:54;;;;;;;;;;;;;;;19.89;77.58;100316.55;122979;1102;104377;-78
2022/06/11 05:55:26;;;;;;;;;;;;;;;20.00;77.72;100317.37;122854;1103;104335;-79
2022/06/11 05:57:55;;;;;;;;;;;;;;;20.11;78.17;100318.17;122900;1102;104280;-78
2022/06/11 06:00:24;;;;;;;;;;;;;;;20.18;77.28;100315.48;122981;1102;104171;-79
2022/06/11 06:02:51;;;;;;;;;;;;;;;20.24;77.62;100319.00;122985;1102;104491;-78
2022/06/11 06:05:20;;;;;;;;;;;;;;;20.36;77.70;100320.67;123086;1102;104383;-78
2022/06/11 06:07:48;;;;;;;;;;;;;;;20.47;77.28;100325.93;123005;1105;104307;-79
2022/06/11 06:10:16;;;;;;;;;;;;;;;20.54;76.92;100329.45;122981;1102;104245;-78
2022/06/11 06:12:44;;;;;;;;;;;;;;;20.60;77.16;100337.37;122858;1102;104297;-78
2022/06/11 06:15:13;;;;;;;;;;;;;;;20.63;77.03;100338.25;122933;1105;104286;-78
2022/06/11 06:17:41;;;;;;;;;;;;;;;20.69;76.69;100334.66;123071;1102;104393;-79
2022/06/11 06:20:12;;;;;;;;;;;;;;;20.75;76.41;100339.07;123213;1105;104225;-79
2022/06/11 06:22:40;;;;;;;;;;;;;;;20.80;76.02;100343.48;123182;1102;104389;-78
2022/06/11 06:25:09;;;;;;;;;;;;;;;20.82;76.00;100335.46;123069;1102;104222;-78
2022/06/11 06:27:36;;;;;;;;;;;;;;;20.93;76.54;100338.03;122925;1102;104733;-78
2022/06/11 06:30:05;;;;;;;;;;;;;;;21.06;76.86;100336.99;123114;1102;104309;-77
2022/06/11 06:32:32;;;;;;;;;;;;;;;21.22;76.23;100331.50;122864;1102;104659;-78
2022/06/11 06:35:00;;;;;;;;;;;;;;;21.39;76.37;100337.53;123075;1102;104434;-78
2022/06/11 06:37:28;;;;;;;;;;;;;;;21.50;75.00;100341.02;123124;1102;104261;-78
2022/06/11 06:39:55;;;;;;;;;;;;;;;21.61;74.63;100345.32;123075;1102;104415;-77
2022/06/11 06:42:23;;;;;;;;;;;;;;;21.69;74.93;100341.66;122994;1102;104398;-77
2022/06/11 06:44:51;;;;;;;;;;;;;;;21.83;74.66;100346.83;122923;1102;104319;-78
2022/06/11 06:47:18;;;;;;;;;;;;;;;21.94;74.68;100340.44;123029;1102;104261;-78
2022/06/11 06:49:47;;;;;;;;;;;;;;;22.04;74.04;100350.11;122880;1102;104377;-78
2022/06/11 06:52:14;;;;;;;;;;;;;;;22.14;74.22;100349.05;122901;1102;104303;-79
2022/06/11 06:54:42;;;;;;;;;;;;;;;22.14;73.21;100348.18;123249;1102;104245;-78
2022/06/11 06:57:10;;;;;;;;;;;;;;;22.08;73.11;100349.17;122984;1102;104396;-78
2022/06/11 06:59:37;;;;;;;;;;;;;;;22.14;72.79;100362.41;122962;1102;104245;-78
2022/06/11 07:02:05;;;;;;;;;;;;;;;22.18;72.89;100358.80;122850;1102;104362;-78
2022/06/11 07:04:33;;;;;;;;;;;;;;;22.22;73.98;100357.87;122810;1102;104353;-78
2022/06/11 07:07:00;;;;;;;;;;;;;;;22.36;73.20;100354.12;122981;1102;104360;-78
2022/06/11 07:09:28;;;;;;;;;;;;;;;22.50;72.95;100352.14;122922;1105;104290;-78
2022/06/11 07:11:56;;;;;;;;;;;;;;;22.58;72.87;100347.55;122902;1105;104318;-78
2022/06/11 07:14:23;;;;;;;;;;;;;;;22.68;73.13;100356.29;122898;1102;104187;-78
2022/06/11 07:16:52;;;;;;;;;;;;;;;22.74;72.92;100366.02;123206;1101;104249;-78
2022/06/11 07:19:24;;;;;;;;;;;;;;;22.76;72.65;100369.53;122987;1102;104252;-79
2022/06/11 07:21:54;;;;;;;;;;;;;;;22.75;72.03;100370.44;122956;1102;104277;-78
2022/06/11 07:24:25;;;;;;;;;;;;;;;22.71;71.83;100372.28;123154;1102;104217;-78
2022/06/11 07:26:55;;;;;;;;;;;;;;;22.75;72.17;100363.31;122880;1105;104246;-78
2022/06/11 07:29:25;;;;;;;;;;;;;;;22.78;70.88;100362.36;123003;1102;104345;-78
2022/06/11 07:33:13;;;;;;;21.40;10.80;;;;;;;22.80;72.11;100371.27;123477;1101;104265;-77
2022/06/11 07:35:45;;;;;;;17.80;9.87;;;;;;;22.87;72.69;100367.55;123276;1102;104265;-77
2022/06/11 07:38:17;;;;;;;16.40;9.80;;;;;;;22.85;71.65;100365.84;123261;1102;104371;-78
2022/06/11 07:40:49;;;;;;;18.00;11.70;;;;;;;22.89;72.00;100368.44;123268;1102;104238;-78
2022/06/11 07:43:23;;;;;;;17.80;10.90;;;;;;;22.94;71.76;100369.22;122819;1104;104393;-77
2022/06/11 07:45:54;;;;;;;22.17;13.13;;;;;;;23.00;71.29;100375.37;122927;1103;104367;-79
2022/06/11 07:48:26;;;;;;;24.80;15.57;;;;;;;22.85;70.93;100361.36;122908;1105;104322;-78
2022/06/11 07:50:57;;;;;;;22.57;15.10;;;;;;;22.86;70.94;100365.81;122914;1102;104290;-78
2022/06/11 07:53:29;;;;;;;23.30;14.97;;;;;;;22.87;70.84;100367.55;123264;1101;104338;-78
2022/06/11 07:56:01;;;;;;;26.35;19.15;;;;;;;22.86;70.47;100363.13;123261;1102;104431;-78
2022/06/11 07:58:34;;;;;;;27.37;21.43;;;;;;;22.88;70.60;100366.66;123333;1102;104794;-78
2022/06/11 08:01:06;;;;;;;28.97;21.73;;;;;;;22.95;70.66;100371.00;123115;1102;104351;-78
2022/06/11 08:03:39;;;;;;;26.03;19.03;;;;;;;23.01;70.80;100364.64;122922;1102;104344;-78
2022/06/11 08:06:10;;;;;;;27.02;19.77;;;;;;;23.08;70.33;100369.02;123212;1102;104239;-78
2022/06/11 08:08:44;;;;;;;28.87;18.67;;;;;;;23.19;70.73;100365.24;122981;1102;104348;-79
2022/06/11 08:11:18;;;;;;;27.57;21.13;;;;;;;23.26;69.80;100373.13;122886;1102;104396;-78
2022/06/11 08:13:49;;;;;;;25.97;19.73;;;;;;;23.36;69.85;100367.61;123311;1102;104239;-78
2022/06/11 08:16:20;;;;;;;26.70;18.83;;;;;;;23.55;69.88;100365.48;123349;1102;104271;-77
2022/06/11 08:18:52;;;;;;;23.90;18.17;;;;;;;23.72;69.80;100363.33;123279;1102;104242;-77
2022/06/11 08:21:23;;;;;;;25.40;18.43;;;;;;;23.76;68.84;100373.05;123295;1102;104271;-78
2022/06/11 08:23:55;;;;;;;21.83;16.20;;;;;;;23.86;68.97;100369.30;123261;1102;104274;-78
2022/06/11 08:26:27;;;;;;;24.83;17.20;;;;;;;23.91;68.86;100371.02;123251;1102;104386;-78
2022/06/11 08:28:58;;;;;;;22.73;16.60;;;;;;;23.93;68.65;100374.53;123480;1102;104290;-78
2022/06/11 08:31:30;;;;;;;24.80;16.50;;;;;;;23.93;68.28;100374.53;123514;1102;104235;-78
2022/06/11 08:34:01;;;;;;;21.53;15.17;;;;;;;23.92;68.14;100376.34;123235;1099;104354;-77
2022/06/11 08:36:33;;;;;;;22.80;14.40;;;;;;;23.99;68.45;100369.05;123279;1099;104639;-77
2022/06/11 08:39:05;;;;;;;20.70;14.13;;;;;;;24.12;68.02;100372.33;123257;1102;104360;-77
2022/06/11 08:41:37;;;;;;;20.37;12.80;;;;;;;24.24;67.90;100374.73;123283;1102;104271;-77
2022/06/11 08:44:10;;;;;;;19.07;12.80;;;;;;;24.24;66.77;100377.41;123408;1099;104311;-78
2022/06/11 08:46:44;;;;;;;17.83;11.80;;;;;;;24.40;67.30;100381.52;123236;1102;104281;-79
2022/06/11 08:49:26;;;;;;;18.87;12.50;;;;;;;24.55;66.45;100379.38;123651;1102;104268;-78
2022/06/11 08:52:05;;;;;;;20.47;12.83;;;;;;;24.51;66.45;100378.59;123373;1100;104223;-78
2022/06/11 08:54:40;;;;;;;19.27;12.17;;;;;;;24.48;66.26;100372.39;123258;1099;104380;-78
2022/06/11 08:57:23;;;;;;;16.80;10.53;;;;;;;24.57;66.11;100373.11;123268;1099;104684;-77
2022/06/11 09:00:08;;;;;;;17.50;9.50;;;;;;;24.78;66.05;100372.59;123248;1102;104352;-77
2022/06/11 09:03:24;;;;;;;15.73;9.67;;;;;;;25.06;65.71;100376.34;123347;1099;104271;-77
2022/06/11 09:06:16;;;;;;;14.50;8.23;;;;;;;25.45;65.83;100373.53;123195;1102;109932;-77
2022/06/11 09:09:04;;;;;;;14.47;8.07;;;;;;;25.67;64.15;100380.98;123358;1102;104703;-78
2022/06/11 09:12:04;;;;;;;13.53;7.10;;;;;;;25.89;63.99;100377.67;123309;1102;104311;-77
2022/06/11 09:15:01;;;;;;;9.57;5.80;;;;;;;26.05;63.05;100378.12;123226;1100;104312;-78
2022/06/11 09:17:52;;;;;;;8.90;5.80;;;;;;;26.13;62.31;100368.91;123342;1100;104479;-78
2022/06/11 09:20:38;;;;;;;11.27;5.20;;;;;;;26.06;61.12;100364.63;123324;1102;104235;-77
2022/06/11 09:23:38;;;;;;;10.30;5.40;;;;;;;26.14;61.38;100361.71;123254;1102;104226;-77
2022/06/11 09:26:24;;;;;;;9.37;6.47;;;;;;;26.33;61.56;100359.31;122913;1102;104425;-78
2022/06/11 09:29:11;;;;;;;9.93;6.63;;;;;;;26.34;60.37;100353.02;123312;1102;104341;-76
2022/06/11 09:31:49;;;;;;;12.30;7.40;;;;;;;26.26;59.31;100352.39;123366;1102;104233;-78
2022/06/11 09:34:27;;;;;;;14.20;7.50;;;;;;;26.06;58.90;100353.88;123536;1102;104268;-77
2022/06/11 09:37:06;;;;;;;10.83;6.40;;;;;;;26.14;59.28;100351.83;123322;1102;104243;-78
2022/06/11 09:39:42;;;;;;;16.47;7.20;;;;;;;26.02;59.33;100346.83;123300;1102;104396;-78
2022/06/11 09:42:48;;;;;;;13.70;7.40;;;;;;;25.84;59.65;100349.12;123345;1099;104381;-78
2022/06/11 09:45:29;;;;;;;12.67;7.37;;;;;;;25.65;59.23;100350.61;123640;1102;104524;-79
2022/06/11 09:48:15;;;;;;;12.33;6.80;;;;;;;25.60;59.39;100360.58;123188;1102;104265;-78
2022/06/11 09:50:52;;;;;;;12.07;7.30;;;;;;;25.60;59.10;100350.73;123270;1102;104348;-78
2022/06/11 09:53:40;;;;;;;11.77;6.80;;;;;;;25.57;59.38;100341.86;123290;1102;104434;-78
2022/06/11 09:56:22;;;;;;;11.55;6.65;;;;;;;25.60;59.27;100341.77;123259;1102;104488;-77
2022/06/11 09:59:04;;;;;;;13.20;7.30;;;;;;;25.73;58.79;100340.50;123320;1102;104339;-77
2022/06/11 10:01:45;;;;;;;10.90;6.60;;;;;;;25.96;58.73;100341.60;123269;1102;104479;-77
2022/06/11 10:04:19;;;;;;;9.67;6.23;;;;;;;26.08;58.34;100335.02;123270;1102;104453;-77
2022/06/11 10:06:56;;;;;;;10.60;6.10;;;;;;;26.06;58.88;100329.69;123270;1102;104457;-78
2022/06/11 10:09:32;;;;;;;9.93;5.93;;;;;;;26.03;58.14;100334.28;123504;1102;104397;-78
2022/06/11 10:12:15;;;;;;;10.20;6.07;;;;;;;25.94;57.46;100324.65;123890;1102;104264;-78
2022/06/11 10:14:52;;;;;;;9.70;6.03;;;;;;;25.89;57.64;100313.17;123470;1102;104335;-76
2022/06/11 10:17:30;;;;;;;9.63;5.70;;;;;;;25.82;56.99;100317.83;123395;1102;104770;-78
2022/06/11 10:20:17;;;;;;;11.90;5.90;;;;;;;25.71;57.05;100312.81;123431;1102;104475;-77
2022/06/11 10:23:01;;;;;;;12.07;5.43;;;;;;;25.73;57.48;100305.57;123607;1102;104351;-77
2022/06/11 10:25:36;;;;;;;10.93;5.20;;;;;;;25.92;56.67;100313.08;123718;1102;104328;-77
2022/06/11 10:28:20;;;;;;;11.63;5.60;;;;;;;26.01;56.72;100307.45;123289;1102;104347;-77
2022/06/11 10:30:56;;;;;;;10.57;5.37;;;;;;;26.18;56.36;100299.72;123386;1102;104396;-78
2022/06/11 10:33:39;;;;;;;7.40;4.87;;;;;;;26.33;56.09;100289.38;123287;1100;104235;-77
2022/06/11 10:36:24;;;;;;;9.83;4.80;;;;;;;26.39;55.90;100281.11;123442;1099;104268;-77
2022/06/11 10:39:00;;;;;;;6.03;4.33;;;;;;;26.47;55.66;100283.55;123375;1102;104242;-78
2022/06/11 10:41:41;;;;;;;7.43;4.47;;;;;;;26.53;55.66;100281.52;123477;1099;104251;-78
2022/06/11 10:44:27;;;;;;;6.13;4.60;;;;;;;26.59;54.25;100280.44;123672;1102;104326;-78
2022/06/11 10:46:59;;;;;;;6.87;4.40;;;;;;;26.69;54.91;100270.27;123533;1102;104797;-77
2022/06/11 10:49:31;;;;;;;9.67;4.63;;;;;;;26.75;54.81;100274.56;123639;1102;104357;-78
2022/06/11 10:52:09;;;;;;;7.33;4.40;;;;;;;26.65;53.83;100271.30;123516;1102;104441;-78
2022/06/11 10:54:41;;;;;;;7.83;4.27;;;;;;;26.45;53.45;100271.97;123650;1102;104268;-78
2022/06/11 10:57:22;;;;;;;5.10;4.00;;;;;;;26.37;52.53;100270.41;123615;1100;104211;-78
2022/06/11 10:59:59;;;;;;;7.50;4.47;;;;;;;26.54;52.58;100253.69;123756;1099;104248;-78
2022/06/11 11:02:37;;;;;;;7.17;4.77;;;;;;;26.65;52.88;100255.15;123440;1102;104431;-78
2022/06/11 11:05:12;;;;;;;10.60;4.60;;;;;;;26.67;52.57;100242.55;123325;1101;104294;-77
2022/06/11 11:07:51;;;;;;;9.00;4.30;;;;;;;26.80;52.26;100238.49;123287;1102;104286;-78
2022/06/11 11:10:40;;;;;;;6.27;4.13;;;;;;;26.90;51.89;100234.52;123412;1101;104267;-77
2022/06/11 11:13:22;;;;;;;7.80;4.00;;;;;;;26.90;52.04;100228.27;123432;1102;104300;-78
2022/06/11 11:16:01;;;;;;;4.73;3.93;;;;;;;26.76;51.25;100226.06;123430;1102;104204;-78
2022/06/11 11:18:42;;;;;;;6.57;4.00;;;;;;;26.74;51.44;100227.95;123702;1102;104269;-78
2022/06/11 11:21:23;;;;;;;8.35;4.30;;;;;;;26.81;51.00;100223.22;123320;1102;104671;-79
2022/06/11 11:24:10;;;;;;;9.20;4.10;;;;;;;26.82;50.69;100223.16;123373;1102;104235;-77
2022/06/11 11:26:47;;;;;;;6.83;3.57;;;;;;;26.96;51.26;100216.37;123420;1102;104508;-78
2022/06/11 11:29:23;;;;;;;6.40;3.97;;;;;;;27.00;50.89;100212.64;123378;1102;104446;-77
2022/06/11 11:31:58;;;;;;;4.73;3.37;;;;;;;27.05;50.28;100224.11;123421;1102;104335;-78
2022/06/11 11:34:32;;;;;;;5.80;3.70;;;;;;;26.96;50.68;100216.37;123259;1102;104368;-77
2022/06/11 11:37:24;;;;;;;9.70;4.17;;;;;;;26.94;50.42;100218.25;123400;1102;104402;-78
2022/06/11 11:39:59;;;;;;;5.10;3.93;;;;;;;26.97;49.99;100210.94;123358;1102;104417;-78
2022/06/11 11:42:39;;;;;;;4.30;3.70;;;;;;;27.14;49.56;100213.00;123270;1102;104462;-78
2022/06/11 11:45:23;;;;;;;7.23;3.50;;;;;;;27.40;49.48;100208.48;123545;1102;104418;-78
2022/06/11 11:48:01;;;;;;;8.87;3.70;;;;;;;27.61;48.91;100202.25;123334;1102;104277;-78
2022/06/11 11:50:35;;;;;;;5.57;3.50;;;;;;;27.82;48.71;100201.45;123350;1101;104349;-77
2022/06/11 11:53:15;;;;;;;4.23;3.47;;;;;;;28.01;48.68;100205.17;123335;1102;104903;-78
2022/06/11 11:55:57;;;;;;;7.97;4.00;;;;;;;27.98;47.82;100202.59;123593;1102;104441;-78
2022/06/11 11:58:33;;;;;;;5.80;3.70;;;;;;;27.94;47.93;100198.23;123383;1102;104239;-78
2022/06/11 12:01:09;;;;;;;8.03;3.20;;;;;;;27.97;47.97;100196.34;123418;1100;104278;-78
2022/06/11 12:03:45;;;;;;;5.67;3.57;;;;;;;27.98;47.59;100198.08;123496;1100;104242;-78
2022/06/11 12:06:27;;;;;;;4.20;3.30;;;;;;;27.86;47.37;100193.19;123333;1101;104296;-78
2022/06/11 12:09:02;;;;;;;5.47;3.40;;;;;;;27.67;46.55;100194.86;123319;1100;104383;-77
2022/06/11 12:11:39;;;;;;;4.80;3.00;;;;;;;27.47;46.28;100196.51;123325;1102;104345;-77
2022/06/11 12:14:18;;;;;;;4.83;3.43;;;;;;;27.41;46.68;100185.97;123356;1102;104268;-77
2022/06/11 12:16:56;;;;;;;5.40;3.60;;;;;;;27.50;46.56;100174.83;123232;1102;104304;-78
2022/06/11 12:19:33;;;;;;;6.63;3.20;;;;;;;27.61;46.77;100172.61;123180;1102;104230;-77